createdAt,value
2018-10-19T00:01:16.295Z,101692.40
2018-10-19T00:03:44.540Z,101693.30
2018-10-19T00:06:12.789Z,101684.72
2018-10-19T00:08:41.045Z,101683.44
2018-10-19T00:11:09.429Z,101683.31
2018-10-19T00:13:37.565Z,101684.92
2018-10-19T00:16:05.779Z,101683.21
2018-10-19T00:18:34.378Z,101689.84
2018-10-19T00:21:02.661Z,101682.01
2018-10-19T00:23:30.817Z,101680.42
2018-10-19T00:25:59.079Z,101685.14
2018-10-19T00:28:27.403Z,101674.31
2018-10-19T00:30:55.707Z,101682.53
2018-10-19T00:33:23.974Z,101679.14
2018-10-19T00:35:53.316Z,101684.33
2018-10-19T00:38:21.601Z,101681.25
2018-10-19T00:40:49.869Z,101682.17
2018-10-19T00:43:18.110Z,101678.38
2018-10-19T00:45:47.167Z,101684.75
2018-10-19T00:48:17.520Z,101682.41
2018-10-19T00:50:45.793Z,101678.80
2018-10-19T00:53:14.472Z,101679.94
2018-10-19T00:55:42.707Z,101677.13
2018-10-19T00:58:11.026Z,101675.11
2018-10-19T01:00:40.563Z,101666.01
2018-10-19T01:03:09.374Z,101672.53
2018-10-19T01:05:38.504Z,101673.20
2018-10-19T01:08:07.607Z,101668.49
2018-10-19T01:10:35.829Z,101665.81
2018-10-19T01:13:04.096Z,101662.97
2018-10-19T01:15:32.338Z,101663.37
2018-10-19T01:18:00.685Z,101664.80
2018-10-19T01:20:29.029Z,101673.02
2018-10-19T01:22:57.347Z,101671.70
2018-10-19T01:25:25.598Z,101667.27
2018-10-19T01:27:54.009Z,101667.71
2018-10-19T01:30:22.258Z,101664.97
2018-10-19T01:32:50.490Z,101668.59
2018-10-19T01:35:18.736Z,101666.88
2018-10-19T01:37:47.795Z,101661.95
2018-10-19T01:40:16.057Z,101659.41
2018-10-19T01:42:44.306Z,101670.35
2018-10-19T01:45:13.279Z,101666.37
2018-10-19T01:47:42.296Z,101668.52
2018-10-19T01:50:11.420Z,101668.88
2018-10-19T01:52:40.416Z,101673.29
2018-10-19T01:55:08.678Z,101685.52
2018-10-19T01:57:36.997Z,101679.91
2018-10-19T02:00:08.542Z,101679.45
2018-10-19T02:02:36.766Z,101684.44
2018-10-19T02:05:05.091Z,101682.92
2018-10-19T02:07:33.346Z,101692.80
2018-10-19T02:10:01.665Z,101685.42
2018-10-19T02:12:29.930Z,101683.34
2018-10-19T02:14:58.257Z,101695.27
2018-10-19T02:17:26.485Z,101690.17
2018-10-19T02:19:54.724Z,101690.69
2018-10-19T02:22:22.940Z,101688.97
2018-10-19T02:24:51.164Z,101684.19
2018-10-19T02:27:19.405Z,101686.38
2018-10-19T02:29:48.000Z,101688.68
2018-10-19T02:32:17.349Z,101689.49
2018-10-19T02:34:45.621Z,101693.91
2018-10-19T02:37:13.846Z,101698.82
2018-10-19T02:39:42.052Z,101697.06
2018-10-19T02:42:10.332Z,101696.73
2018-10-19T02:44:38.551Z,101699.21
2018-10-19T02:47:12.487Z,101698.79
2018-10-19T02:49:40.574Z,101685.42
2018-10-19T02:52:08.814Z,101690.92
2018-10-19T02:54:37.089Z,101684.16
2018-10-19T02:57:05.525Z,101679.73
2018-10-19T02:59:33.817Z,101678.05
2018-10-19T03:02:02.069Z,101691.86
2018-10-19T03:04:30.329Z,101684.09
2018-10-19T03:06:58.580Z,101690.71
2018-10-19T03:09:26.864Z,101690.02
2018-10-19T03:11:55.080Z,101689.78
2018-10-19T03:14:25.432Z,101690.66
2018-10-19T03:16:53.662Z,101687.23
2018-10-19T03:19:21.914Z,101691.14
2018-10-19T03:21:50.136Z,101692.66
2018-10-19T03:24:18.401Z,101691.02
2018-10-19T03:26:46.641Z,101701.69
2018-10-19T03:29:17.382Z,101703.57
2018-10-19T03:31:45.866Z,101701.88
2018-10-19T03:34:14.135Z,101702.69
2018-10-19T03:36:42.352Z,101700.30
2018-10-19T03:39:10.723Z,101696.41
2018-10-19T03:41:39.337Z,101708.90
2018-10-19T03:44:07.617Z,101705.42
2018-10-19T03:46:37.064Z,101712.22
2018-10-19T03:49:05.923Z,101709.35
2018-10-19T03:51:34.149Z,101707.08
2018-10-19T03:54:02.406Z,101706.53
2018-10-19T03:56:30.776Z,101707.83
2018-10-19T03:58:59.083Z,101713.55
2018-10-19T04:01:27.254Z,101707.98
2018-10-19T04:03:55.475Z,101708.08
2018-10-19T04:06:23.734Z,101706.36
2018-10-19T04:08:51.986Z,101715.98
2018-10-19T04:11:20.196Z,101713.19
2018-10-19T04:13:49.877Z,101717.55
2018-10-19T04:16:18.112Z,101710.92
2018-10-19T04:18:46.349Z,101708.50
2018-10-19T04:21:14.662Z,101710.46
2018-10-19T04:23:42.797Z,101717.48
2018-10-19T04:26:11.074Z,101705.23
2018-10-19T04:28:39.357Z,101710.36
2018-10-19T04:31:07.603Z,101708.16
2018-10-19T04:33:35.909Z,101714.84
2018-10-19T04:36:04.161Z,101716.55
2018-10-19T04:38:32.369Z,101717.32
2018-10-19T04:41:00.648Z,101721.71
2018-10-19T04:43:28.855Z,101714.69
2018-10-19T04:45:57.134Z,101721.78
2018-10-19T04:48:25.721Z,101726.95
2018-10-19T04:50:53.994Z,101727.23
2018-10-19T04:53:22.227Z,101724.46
2018-10-19T04:55:50.502Z,101718.13
2018-10-19T04:58:18.723Z,101722.95
2018-10-19T05:00:46.954Z,101725.90
2018-10-19T05:03:15.249Z,101728.11
2018-10-19T05:05:43.451Z,101732.75
2018-10-19T05:08:11.717Z,101726.64
2018-10-19T05:10:49.448Z,101728.06
2018-10-19T05:13:17.746Z,101724.89
2018-10-19T05:15:46.006Z,101733.45
2018-10-19T05:18:14.249Z,101736.52
2018-10-19T05:20:42.528Z,101721.58
2018-10-19T05:23:10.845Z,101728.08
2018-10-19T05:25:39.078Z,101731.96
2018-10-19T05:28:07.324Z,101731.89
2018-10-19T05:30:35.644Z,101728.11
2018-10-19T05:33:03.996Z,101723.69
2018-10-19T05:35:32.173Z,101724.63
2018-10-19T05:38:00.470Z,101731.23
2018-10-19T05:40:28.661Z,101735.49
2018-10-19T05:42:56.878Z,101729.02
2018-10-19T05:45:25.141Z,101731.80
2018-10-19T05:47:58.918Z,101734.58
2018-10-19T05:50:27.128Z,101734.98
2018-10-19T05:52:55.373Z,101735.44
2018-10-19T05:55:23.613Z,101737.81
2018-10-19T05:57:51.912Z,101735.45
2018-10-19T06:03:16.315Z,101749.58
2018-10-19T06:05:44.828Z,101746.45
2018-10-19T06:08:13.118Z,101742.27
2018-10-19T06:10:41.272Z,101741.95
2018-10-19T06:13:09.497Z,101741.67
2018-10-19T06:15:37.933Z,101752.18
2018-10-19T06:18:06.178Z,101748.36
2018-10-19T06:20:34.474Z,101753.31
2018-10-19T06:23:02.760Z,101756.92
2018-10-19T06:25:30.950Z,101760.41
2018-10-19T06:27:59.178Z,101761.00
2018-10-19T06:30:27.425Z,101758.34
2018-10-19T06:32:56.710Z,101764.84
2018-10-19T06:35:25.361Z,101768.28
2018-10-19T06:37:53.590Z,101768.09
2018-10-19T06:40:27.460Z,101765.91
2018-10-19T06:42:55.694Z,101774.85
2018-10-19T06:45:23.968Z,101774.20
2018-10-19T06:47:52.197Z,101769.42
2018-10-19T06:50:20.790Z,101770.77
2018-10-19T06:52:48.996Z,101774.50
2018-10-19T06:55:19.079Z,101779.21
2018-10-19T06:57:47.339Z,101776.22
2018-10-19T07:00:16.264Z,101779.86
2018-10-19T07:02:44.511Z,101784.15
2018-10-19T07:05:12.820Z,101784.27
2018-10-19T07:07:41.061Z,101783.34
2018-10-19T07:10:10.219Z,101782.13
2018-10-19T07:12:38.580Z,101780.44
2018-10-19T07:15:07.847Z,101777.30
2018-10-19T07:17:36.292Z,101777.84
2018-10-19T07:20:05.365Z,101774.92
2018-10-19T07:22:33.585Z,101781.27
2018-10-19T07:25:02.147Z,101785.56
2018-10-19T07:27:30.535Z,101789.80
2018-10-19T07:29:59.413Z,101789.80
2018-10-19T07:35:10.197Z,101793.39
2018-10-19T07:37:38.381Z,101800.08
2018-10-19T07:40:06.965Z,101794.16
2018-10-19T07:42:35.347Z,101799.52
2018-10-19T07:45:04.817Z,101793.17
2018-10-19T07:47:34.024Z,101798.09
2018-10-19T07:50:02.256Z,101793.63
2018-10-19T07:52:30.497Z,101796.22
2018-10-19T07:54:58.729Z,101804.42
2018-10-19T07:57:26.998Z,101801.71
2018-10-19T07:59:55.383Z,101813.25
2018-10-19T08:02:23.721Z,101819.39
2018-10-19T08:04:52.077Z,101817.02
2018-10-19T08:07:20.382Z,101817.67
2018-10-19T08:09:48.680Z,101819.70
2018-10-19T08:12:16.933Z,101813.42
2018-10-19T08:14:45.189Z,101817.95
2018-10-19T08:17:13.482Z,101825.38
2018-10-19T08:19:41.662Z,101820.25
2018-10-19T08:22:09.911Z,101820.75
2018-10-19T08:24:38.203Z,101822.05
2018-10-19T08:27:06.734Z,101817.84
2018-10-19T08:29:34.930Z,101823.19
2018-10-19T08:32:03.316Z,101819.89
2018-10-19T08:34:31.614Z,101830.84
2018-10-19T08:36:59.888Z,101824.14
2018-10-19T08:39:28.138Z,101824.75
2018-10-19T08:41:56.533Z,101828.92
2018-10-19T08:44:24.781Z,101830.86
2018-10-19T08:46:53.059Z,101829.48
2018-10-19T08:49:21.706Z,101832.12
2018-10-19T08:51:50.030Z,101818.73
2018-10-19T08:54:18.297Z,101820.37
2018-10-19T08:56:46.648Z,101827.23
2018-10-19T08:59:18.744Z,101827.90
2018-10-19T09:01:46.928Z,101819.44
2018-10-19T09:04:15.288Z,101818.36
2018-10-19T09:06:43.466Z,101806.05
2018-10-19T09:09:12.099Z,101814.46
2018-10-19T09:11:40.728Z,101817.44
2018-10-19T09:14:20.345Z,101821.92
2018-10-19T09:16:49.174Z,101814.68
2018-10-19T09:19:17.650Z,101815.81
2018-10-19T09:21:45.885Z,101818.18
2018-10-19T09:24:14.149Z,101816.14
2018-10-19T09:26:43.475Z,101818.34
2018-10-19T09:29:12.055Z,101818.92
2018-10-19T09:31:40.266Z,101820.22
2018-10-19T09:34:09.605Z,101817.56
2018-10-19T09:36:37.965Z,101815.91
2018-10-19T09:39:10.399Z,101815.16
2018-10-19T09:41:38.558Z,101803.43
2018-10-19T09:44:07.118Z,101806.94
2018-10-19T09:46:38.121Z,101807.80
2018-10-19T09:49:06.634Z,101806.14
2018-10-19T09:51:34.916Z,101800.52
2018-10-19T09:54:03.158Z,101799.84
2018-10-19T09:56:31.441Z,101791.33
2018-10-19T09:58:59.689Z,101790.48
2018-10-19T10:01:28.542Z,101794.28
2018-10-19T10:03:57.116Z,101793.80
2018-10-19T10:06:25.391Z,101793.95
2018-10-19T10:08:53.670Z,101789.72
2018-10-19T10:11:21.950Z,101791.02
2018-10-19T10:13:50.447Z,101783.64
2018-10-19T10:16:22.614Z,101785.38
2018-10-19T10:18:50.868Z,101777.53
2018-10-19T10:21:19.164Z,101775.80
2018-10-19T10:23:47.426Z,101774.47
2018-10-19T10:26:15.730Z,101766.58
2018-10-19T10:28:44.059Z,101769.24
2018-10-19T10:31:12.423Z,101760.98
2018-10-19T10:33:40.765Z,101762.68
2018-10-19T10:36:09.552Z,101765.30
2018-10-19T10:38:37.899Z,101764.42
2018-10-19T10:41:06.253Z,101760.06
2018-10-19T10:43:34.477Z,101747.25
2018-10-19T10:46:02.732Z,101745.12
2018-10-19T10:48:30.989Z,101743.30
2018-10-19T10:50:59.385Z,101747.42
2018-10-19T10:53:27.635Z,101740.80
2018-10-19T10:55:55.860Z,101742.41
2018-10-19T10:58:24.103Z,101738.09
2018-10-19T11:00:52.358Z,101737.73
2018-10-19T11:03:20.681Z,101731.61
2018-10-19T11:05:54.663Z,101723.74
2018-10-19T11:08:22.873Z,101723.70
2018-10-19T11:10:51.105Z,101722.03
2018-10-19T11:13:19.331Z,101717.13
2018-10-19T11:15:47.641Z,101722.39
2018-10-19T11:18:15.893Z,101717.02
2018-10-19T11:20:44.156Z,101717.66
2018-10-19T11:23:12.409Z,101726.89
2018-10-19T11:25:40.645Z,101715.95
2018-10-19T11:28:08.938Z,101713.73
2018-10-19T11:30:37.219Z,101711.09
2018-10-19T11:33:05.440Z,101708.91
2018-10-19T11:35:33.695Z,101711.77
2018-10-19T11:38:02.056Z,101717.79
2018-10-19T11:40:33.602Z,101714.56
2018-10-19T11:43:01.895Z,101706.97
2018-10-19T11:45:31.421Z,101705.36
2018-10-19T11:47:59.709Z,101707.16
2018-10-19T11:50:29.254Z,101711.48
2018-10-19T11:52:57.491Z,101712.30
2018-10-19T11:55:25.723Z,101701.78
2018-10-19T11:57:54.201Z,101701.78
2018-10-19T12:00:22.456Z,101699.47
2018-10-19T12:02:50.743Z,101701.59
2018-10-19T12:05:19.114Z,101695.52
2018-10-19T12:07:47.456Z,101700.25
2018-10-19T12:10:15.832Z,101707.84
2018-10-19T12:12:44.404Z,101704.09
2018-10-19T12:15:14.839Z,101699.97
2018-10-19T12:17:43.754Z,101691.17
2018-10-19T12:20:16.613Z,101686.89
2018-10-19T12:22:44.893Z,101685.69
2018-10-19T12:25:14.136Z,101678.83
2018-10-19T12:27:42.594Z,101684.39
2018-10-19T12:30:11.430Z,101683.37
2018-10-19T12:32:39.847Z,101683.17
2018-10-19T12:35:09.665Z,101683.23
2018-10-19T12:37:38.141Z,101678.25
2018-10-19T12:40:07.270Z,101677.52
2018-10-19T12:42:35.994Z,101678.63
2018-10-19T12:45:04.500Z,101684.08
2018-10-19T12:47:37.912Z,101682.77
2018-10-19T12:50:06.717Z,101683.72
2018-10-19T12:52:34.982Z,101679.27
2018-10-19T12:55:03.321Z,101688.86
2018-10-19T12:57:31.552Z,101684.36
2018-10-19T12:59:59.693Z,101684.27
2018-10-19T13:02:27.933Z,101673.94
2018-10-19T13:04:56.192Z,101671.58
2018-10-19T13:07:24.460Z,101678.75
2018-10-19T13:09:52.776Z,101670.00
2018-10-19T13:12:20.996Z,101670.91
2018-10-19T13:14:49.225Z,101672.58
2018-10-19T13:17:17.489Z,101668.38
2018-10-19T13:19:45.799Z,101666.33
2018-10-19T13:22:14.038Z,101661.82
2018-10-19T13:24:42.293Z,101666.38
2018-10-19T13:27:10.556Z,101665.02
2018-10-19T13:29:38.774Z,101658.84
2018-10-19T13:32:07.113Z,101658.70
2018-10-19T13:34:35.358Z,101653.81
2018-10-19T13:37:03.578Z,101659.70
2018-10-19T13:39:31.919Z,101653.84
2018-10-19T13:42:00.155Z,101655.33
2018-10-19T13:44:28.398Z,101658.23
2018-10-19T13:46:56.778Z,101651.41
2018-10-19T13:49:24.949Z,101647.33
2018-10-19T13:51:53.186Z,101645.00
2018-10-19T13:54:21.392Z,101640.95
2018-10-19T13:56:49.753Z,101636.17
2018-10-19T13:59:18.088Z,101639.55
2018-10-19T14:01:46.300Z,101633.48
2018-10-19T14:04:14.505Z,101641.92
2018-10-19T14:06:42.740Z,101626.31
2018-10-19T14:09:11.347Z,101629.86
2018-10-19T14:11:40.183Z,101623.20
2018-10-19T14:14:08.428Z,101630.16
2018-10-19T14:16:36.713Z,101622.52
2018-10-19T14:19:05.004Z,101621.88
2018-10-19T14:21:33.226Z,101619.47
2018-10-19T14:24:01.478Z,101616.28
2018-10-19T14:26:29.745Z,101623.23
2018-10-19T14:28:58.052Z,101619.75
2018-10-19T14:31:27.363Z,101623.70
2018-10-19T14:33:59.965Z,101615.84
2018-10-19T14:36:28.350Z,101621.02
2018-10-19T14:38:56.769Z,101620.04
2018-10-19T14:41:26.026Z,101618.67
2018-10-19T14:43:56.382Z,101622.91
2018-10-19T14:46:25.699Z,101615.47
2018-10-19T14:48:54.054Z,101623.83
2018-10-19T14:51:23.433Z,101617.47
2018-10-19T14:53:52.881Z,101623.23
2018-10-19T14:56:21.153Z,101624.91
2018-10-19T14:58:49.395Z,101630.35
2018-10-19T15:01:17.648Z,101623.05
2018-10-19T15:03:49.617Z,101622.91
2018-10-19T15:06:17.926Z,101628.20
2018-10-19T15:08:46.197Z,101628.01
2018-10-19T15:11:14.796Z,101624.45
2018-10-19T15:13:42.772Z,101625.55
2018-10-19T15:16:11.028Z,101618.23
2018-10-19T15:18:39.567Z,101612.42
2018-10-19T15:21:07.795Z,101610.68
2018-10-19T15:23:39.818Z,101615.36
2018-10-19T15:26:08.040Z,101618.59
2018-10-19T15:28:36.294Z,101620.90
2018-10-19T15:31:05.850Z,101618.16
2018-10-19T15:33:34.126Z,101614.97
2018-10-19T15:36:02.485Z,101615.53
2018-10-19T15:38:30.664Z,101613.47
2018-10-19T15:40:58.884Z,101614.82
2018-10-19T15:43:27.097Z,101613.06
2018-10-19T15:45:55.327Z,101621.41
2018-10-19T15:48:23.578Z,101620.50
2018-10-19T15:50:51.812Z,101623.95
2018-10-19T15:53:20.045Z,101624.08
2018-10-19T15:55:48.323Z,101628.45
2018-10-19T15:58:16.586Z,101630.23
2018-10-19T16:00:45.159Z,101629.94
2018-10-19T16:03:13.466Z,101632.67
2018-10-19T16:05:41.689Z,101637.08
2018-10-19T16:08:09.949Z,101639.70
2018-10-19T16:10:38.181Z,101638.89
2018-10-19T16:13:06.411Z,101644.19
2018-10-19T16:15:34.717Z,101646.31
2018-10-19T16:18:02.993Z,101647.25
2018-10-19T16:20:32.313Z,101647.69
2018-10-19T16:23:01.663Z,101654.73
2018-10-19T16:25:31.021Z,101661.77
2018-10-19T16:28:00.335Z,101663.04
2018-10-19T16:30:28.644Z,101663.09
2018-10-19T16:32:56.960Z,101669.70
2018-10-19T16:35:25.145Z,101679.33
2018-10-19T16:37:53.405Z,101681.98
2018-10-19T16:40:21.650Z,101678.89
2018-10-19T16:42:49.865Z,101685.05
2018-10-19T16:45:18.411Z,101690.89
2018-10-19T16:47:46.675Z,101683.09
2018-10-19T16:50:14.912Z,101687.05
2018-10-19T16:52:43.270Z,101684.87
2018-10-19T16:55:11.354Z,101688.72
2018-10-19T16:57:40.609Z,101697.02
2018-10-19T17:00:09.748Z,101697.09
2018-10-19T17:02:42.011Z,101707.59
2018-10-19T17:05:16.270Z,101708.49
2018-10-19T17:07:44.462Z,101712.02
2018-10-19T17:10:12.733Z,101711.16
2018-10-19T17:12:41.064Z,101723.81
2018-10-19T17:15:09.327Z,101722.56
2018-10-19T17:17:37.609Z,101722.09
2018-10-19T17:20:07.226Z,101727.26
2018-10-19T17:22:35.757Z,101728.63
2018-10-19T17:25:04.524Z,101736.08
2018-10-19T17:27:33.041Z,101735.19
2018-10-19T17:30:03.508Z,101738.70
2018-10-19T17:32:31.802Z,101741.32
2018-10-19T17:35:01.171Z,101739.16
2018-10-19T17:37:29.418Z,101743.55
2018-10-19T17:39:57.714Z,101749.20
2018-10-19T17:42:26.077Z,101745.27
2018-10-19T17:44:58.503Z,101746.16
2018-10-19T17:47:27.074Z,101747.92
2018-10-19T17:49:55.293Z,101755.75
2018-10-19T17:52:24.729Z,101759.69
2018-10-19T17:54:53.038Z,101766.20
2018-10-19T17:57:21.285Z,101776.22
2018-10-19T17:59:49.628Z,101781.45
2018-10-19T18:02:17.995Z,101777.92
2018-10-19T18:04:47.543Z,101776.22
2018-10-19T18:07:15.857Z,101780.57
2018-10-19T18:09:44.145Z,101784.49
2018-10-19T18:12:12.415Z,101786.66
2018-10-19T18:14:40.626Z,101794.94
2018-10-19T18:17:09.157Z,101799.27
2018-10-19T18:19:37.392Z,101805.81
2018-10-19T18:22:08.060Z,101807.03
2018-10-19T18:24:36.146Z,101809.57
2018-10-19T18:27:05.537Z,101815.64
2018-10-19T18:29:33.909Z,101816.55
2018-10-19T18:32:02.332Z,101818.75
2018-10-19T18:36:59.007Z,101829.63
2018-10-19T18:39:27.364Z,101822.58
2018-10-19T18:41:55.958Z,101826.00
2018-10-19T18:44:24.153Z,101825.20
2018-10-19T18:46:53.440Z,101829.08
2018-10-19T18:49:26.732Z,101832.19
2018-10-19T18:51:55.038Z,101826.55
2018-10-19T18:54:23.301Z,101835.63
2018-10-19T18:56:53.613Z,101839.81
2018-10-19T18:59:25.260Z,101836.33
2018-10-19T19:01:53.577Z,101834.53
2018-10-19T19:04:21.834Z,101845.03
2018-10-19T19:06:50.124Z,101844.93
2018-10-19T19:09:18.490Z,101842.30
2018-10-19T19:11:47.826Z,101842.80
2018-10-19T19:14:20.089Z,101842.06
2018-10-19T19:16:48.332Z,101854.20
2018-10-19T19:19:16.573Z,101856.85
2018-10-19T19:21:46.845Z,101853.79
2018-10-19T19:24:21.474Z,101860.23
2018-10-19T19:26:51.774Z,101853.25
2018-10-19T19:29:20.151Z,101861.95
2018-10-19T19:31:49.504Z,101855.55
2018-10-19T19:34:18.746Z,101855.15
2018-10-19T19:36:47.126Z,101861.65
2018-10-19T19:39:15.380Z,101864.59
2018-10-19T19:41:48.806Z,101867.30
2018-10-19T19:44:18.191Z,101867.48
2018-10-19T19:46:46.449Z,101871.08
2018-10-19T19:49:22.001Z,101867.05
2018-10-19T19:51:53.497Z,101863.19
2018-10-19T19:54:21.893Z,101864.53
2018-10-19T19:56:50.234Z,101867.51
2018-10-19T19:59:18.558Z,101866.61
2018-10-19T20:01:46.946Z,101871.34
2018-10-19T20:04:15.298Z,101860.66
2018-10-19T20:06:45.526Z,101868.41
2018-10-19T20:09:13.870Z,101869.94
2018-10-19T20:11:46.561Z,101874.70
2018-10-19T20:14:19.325Z,101872.45
2018-10-19T20:16:47.553Z,101877.79
2018-10-19T20:19:16.805Z,101874.25
2018-10-19T20:21:47.090Z,101879.34
2018-10-19T20:24:17.388Z,101880.30
2018-10-19T20:26:45.634Z,101874.91
2018-10-19T20:29:14.995Z,101871.39
2018-10-19T20:31:48.481Z,101880.77
2018-10-19T20:34:17.805Z,101882.41
2018-10-19T20:36:46.062Z,101880.25
2018-10-19T20:39:16.443Z,101869.23
2018-10-19T20:41:49.265Z,101878.34
2018-10-19T20:44:18.601Z,101863.09
2018-10-19T20:46:46.801Z,101868.69
2018-10-19T20:49:15.081Z,101870.72
2018-10-19T20:51:48.873Z,101876.10
2018-10-19T20:54:18.165Z,101878.62
2018-10-19T20:56:48.505Z,101879.05
2018-10-19T20:59:16.850Z,101873.91
2018-10-19T21:01:45.080Z,101874.66
2018-10-19T21:04:17.204Z,101888.22
2018-10-19T21:06:46.510Z,101881.34
2018-10-19T21:09:14.765Z,101880.69
2018-10-19T21:11:45.018Z,101885.80
2018-10-19T21:14:15.347Z,101884.20
2018-10-19T21:16:48.316Z,101881.51
2018-10-19T21:19:16.657Z,101883.63
2018-10-19T21:21:44.875Z,101891.53
2018-10-19T21:24:13.096Z,101893.80
2018-10-19T21:26:41.467Z,101891.28
2018-10-19T21:29:09.958Z,101894.89
2018-10-19T21:31:38.241Z,101893.81
2018-10-19T21:34:11.793Z,101891.34
2018-10-19T21:36:43.728Z,101902.96
2018-10-19T21:39:12.838Z,101913.61
2018-10-19T21:41:41.073Z,101913.28
2018-10-19T21:44:09.378Z,101920.67
2018-10-19T21:46:38.775Z,101918.85
2018-10-19T21:49:08.099Z,101911.19
2018-10-19T21:51:36.406Z,101921.98
2018-10-19T21:54:05.288Z,101923.30
2018-10-19T21:56:33.526Z,101918.64
2018-10-19T21:59:01.756Z,101920.70
2018-10-19T22:01:32.091Z,101924.16
2018-10-19T22:04:00.362Z,101918.58
2018-10-19T22:06:29.726Z,101928.13
2018-10-19T22:08:58.265Z,101926.73
2018-10-19T22:11:26.494Z,101926.00
2018-10-19T22:13:54.719Z,101925.06
2018-10-19T22:16:25.077Z,101925.30
2018-10-19T22:18:53.395Z,101921.84
2018-10-19T22:21:21.620Z,101924.45
2018-10-19T22:23:49.975Z,101930.99
2018-10-19T22:26:19.417Z,101925.72
2018-10-19T22:28:47.728Z,101929.14
2018-10-19T22:31:18.066Z,101931.95
2018-10-19T22:33:50.074Z,101926.53
2018-10-19T22:36:18.361Z,101931.11
2018-10-19T22:38:46.630Z,101933.19
2018-10-19T22:41:15.006Z,101942.05
2018-10-19T22:43:43.230Z,101942.48
2018-10-19T22:46:11.475Z,101941.91
2018-10-19T22:48:39.678Z,101936.09
2018-10-19T22:51:07.924Z,101933.84
2018-10-19T22:53:36.252Z,101942.37
2018-10-19T22:56:05.689Z,101948.66
2018-10-19T22:58:33.963Z,101953.86
2018-10-19T23:01:02.304Z,101957.78
2018-10-19T23:20:36.117Z,101971.83
2018-10-19T23:23:04.452Z,101979.04
2018-10-19T23:25:32.691Z,101979.52
2018-10-19T23:28:00.921Z,101985.86
2018-10-19T23:30:29.202Z,101994.86
2018-10-19T23:32:57.379Z,101984.59
2018-10-19T23:35:25.638Z,101986.46
2018-10-19T23:37:54.070Z,101989.30
2018-10-19T23:40:23.399Z,101986.77
2018-10-19T23:42:52.750Z,101988.79
2018-10-19T23:45:21.036Z,101994.04
2018-10-19T23:47:49.321Z,101993.85
2018-10-19T23:50:17.662Z,101996.70
2018-10-19T23:52:45.967Z,101988.70
2018-10-19T23:55:14.337Z,101988.23
2018-10-19T23:57:42.527Z,101996.13
